Danville Regional Airport Danville US
ICAO: KDAN
IATA: DAN
Category: Medium
Scheduled Services: No

Elevation: 571 ft
TransAlt. 18000 ft.

Airport Communications:
ASOS:128.125
WASHINGTON CNTR:124.05
LEESBURG RDO:122.2
CTAF/UNICOM:123.05

KDAN Zoom In..

If you have problems with the map follow the link
https://www.worldairports.se/pages/airport.php?
ICAO=KDAN

Runways:

(A) RW 02 length 6500 ft width 150 ft
ILS 110.70 / hdg 25

(B) RW 13 length 4020 ft width 100 ft
---- / hdg 134

(C) RW 20 length 6500 ft width 150 ft
---- / hdg 205

(D) RW 31 length 4020 ft width 100 ft
---- / hdg 314

Location; KDAN
Day. 19 / Time. 18.53 Zulu
* Altimeter: 29.93
* Temperature: 09° c. 48.2°f.
* Wind from: 290° Speed 14 kn with Gusts up to 21 kn.
Dewpoint: -09° c.
Visibility: 10 Statute Miles.
Clouds: Clear (automated report).

KDAN 191853Z AUTO 29014G21KT 10SM CLR 09/M09 A2993 RMK AO2 PK WND 28026/1813 SLP130 T00941089


Wind From 290°
Speed 14 kn.

 
 
jpsmedia worldairports.se 2020   terms of use